createdAt,value
2018-09-30T00:02:18.170Z,6.30
2018-09-30T00:04:48.142Z,6.30
2018-09-30T00:07:18.074Z,6.30
2018-09-30T00:09:48.053Z,6.30
2018-09-30T00:12:17.983Z,6.30
2018-09-30T00:14:47.957Z,6.30
2018-09-30T00:17:18.111Z,6.30
2018-09-30T00:19:50.875Z,6.20
2018-09-30T00:22:20.846Z,6.20
2018-09-30T00:24:56.215Z,6.20
2018-09-30T00:27:26.266Z,6.20
2018-09-30T00:29:56.198Z,6.20
2018-09-30T00:32:26.166Z,6.20
2018-09-30T00:34:56.248Z,6.20
2018-09-30T00:37:26.165Z,6.20
2018-09-30T00:39:56.164Z,6.20
2018-09-30T00:42:26.127Z,6.10
2018-09-30T00:44:56.051Z,6.10
2018-09-30T00:47:26.139Z,6.10
2018-09-30T00:49:56.142Z,6.10
2018-09-30T00:52:26.054Z,6.10
2018-09-30T00:54:56.020Z,6.00
2018-09-30T00:57:25.982Z,6.00
2018-09-30T00:59:55.924Z,6.00
2018-09-30T01:02:25.881Z,6.00
2018-09-30T01:04:55.981Z,6.00
2018-09-30T01:07:25.907Z,5.90
2018-09-30T01:09:55.839Z,5.80
2018-09-30T01:12:26.062Z,5.70
2018-09-30T01:14:56.131Z,5.40
2018-09-30T01:17:26.098Z,5.20
2018-09-30T01:19:56.014Z,5.20
2018-09-30T01:22:25.954Z,5.20
2018-09-30T01:24:55.871Z,5.20
2018-09-30T01:27:32.489Z,5.10
2018-09-30T01:30:02.592Z,4.90
2018-09-30T01:32:32.522Z,4.90
2018-09-30T01:35:02.468Z,4.90
2018-09-30T01:37:32.468Z,4.90
2018-09-30T01:40:02.394Z,5.00
2018-09-30T01:42:32.355Z,4.90
2018-09-30T01:45:02.303Z,4.90
2018-09-30T01:47:32.262Z,4.90
2018-09-30T01:50:02.186Z,4.80
2018-09-30T01:52:51.680Z,4.80
2018-09-30T01:55:22.169Z,4.80
2018-09-30T01:57:52.240Z,4.70
2018-09-30T02:00:22.655Z,4.70
2018-09-30T02:02:52.783Z,4.70
2018-09-30T02:05:22.774Z,4.80
2018-09-30T02:07:52.725Z,4.70
2018-09-30T02:10:22.690Z,4.70
2018-09-30T02:12:52.657Z,4.70
2018-09-30T02:15:22.585Z,4.60
2018-09-30T02:17:52.603Z,4.70
2018-09-30T02:20:22.539Z,4.70
2018-09-30T02:22:52.518Z,4.70
2018-09-30T02:25:22.810Z,4.70
2018-09-30T02:27:52.746Z,4.60
2018-09-30T02:30:22.731Z,4.60
2018-09-30T02:32:52.713Z,4.70
2018-09-30T02:35:22.638Z,4.60
2018-09-30T02:37:52.630Z,4.60
2018-09-30T02:40:22.922Z,4.60
2018-09-30T02:42:52.886Z,4.60
2018-09-30T02:45:23.032Z,4.60
2018-09-30T02:47:52.962Z,4.50
2018-09-30T02:50:23.254Z,4.40
2018-09-30T02:52:53.181Z,4.40
2018-09-30T02:55:23.170Z,4.30
2018-09-30T02:57:53.143Z,4.30
2018-09-30T03:00:23.110Z,4.30
2018-09-30T03:02:53.398Z,4.30
2018-09-30T03:05:23.387Z,4.30
2018-09-30T03:07:58.672Z,4.30
2018-09-30T03:10:28.634Z,4.30
2018-09-30T03:12:58.795Z,4.20
2018-09-30T03:15:29.005Z,4.20
2018-09-30T03:17:58.944Z,4.20
2018-09-30T03:20:28.928Z,4.30
2018-09-30T03:22:59.779Z,4.30
2018-09-30T03:25:29.730Z,4.20
2018-09-30T03:27:59.658Z,4.30
2018-09-30T03:30:29.578Z,4.30
2018-09-30T03:32:59.591Z,4.20
2018-09-30T03:35:29.539Z,4.30
2018-09-30T03:38:00.203Z,4.30
2018-09-30T03:40:30.287Z,4.30
2018-09-30T03:43:00.249Z,4.20
2018-09-30T03:45:30.587Z,4.20
2018-09-30T03:48:00.542Z,4.10
2018-09-30T03:50:30.510Z,4.10
2018-09-30T03:53:00.447Z,4.10
2018-09-30T03:55:30.385Z,4.10
2018-09-30T03:58:00.346Z,4.10
2018-09-30T04:00:30.314Z,4.10
2018-09-30T04:03:00.362Z,4.20
2018-09-30T04:05:30.307Z,4.20
2018-09-30T04:08:00.572Z,4.20
2018-09-30T04:10:30.535Z,4.20
2018-09-30T04:13:00.461Z,4.30
2018-09-30T04:15:30.394Z,4.30
2018-09-30T04:18:00.315Z,4.30
2018-09-30T04:20:30.326Z,4.30
2018-09-30T04:23:00.218Z,4.30
2018-09-30T04:25:30.143Z,4.30
2018-09-30T04:28:00.069Z,4.30
2018-09-30T04:30:29.982Z,4.30
2018-09-30T04:32:59.921Z,4.30
2018-09-30T04:35:30.900Z,4.20
2018-09-30T04:38:00.819Z,4.20
2018-09-30T04:40:31.090Z,4.20
2018-09-30T04:43:00.982Z,4.20
2018-09-30T04:45:31.214Z,4.20
2018-09-30T04:48:01.159Z,4.20
2018-09-30T04:50:31.257Z,4.30
2018-09-30T04:53:01.295Z,4.30
2018-09-30T04:55:31.238Z,4.30
2018-09-30T04:58:01.158Z,4.30
2018-09-30T05:00:31.204Z,4.30
2018-09-30T05:03:01.140Z,4.30
2018-09-30T05:05:31.474Z,4.30
2018-09-30T05:08:01.562Z,4.20
2018-09-30T05:10:31.521Z,4.20
2018-09-30T05:13:01.441Z,4.30
2018-09-30T05:15:31.325Z,4.20
2018-09-30T05:18:01.412Z,4.30
2018-09-30T05:20:31.562Z,4.20
2018-09-30T05:23:01.821Z,4.20
2018-09-30T05:25:31.765Z,4.20
2018-09-30T05:28:01.673Z,4.20
2018-09-30T05:30:31.574Z,4.20
2018-09-30T05:33:01.607Z,4.20
2018-09-30T05:35:31.623Z,4.30
2018-09-30T05:38:01.642Z,4.30
2018-09-30T05:40:32.094Z,4.30
2018-09-30T05:43:02.158Z,4.30
2018-09-30T05:45:32.203Z,4.30
2018-09-30T05:48:02.111Z,4.40
2018-09-30T05:50:32.134Z,4.40
2018-09-30T05:53:02.050Z,4.40
2018-09-30T05:55:31.982Z,4.40
2018-09-30T05:58:02.234Z,4.40
2018-09-30T06:00:32.241Z,4.50
2018-09-30T06:03:02.237Z,4.50
2018-09-30T06:05:32.166Z,4.60
2018-09-30T06:08:02.081Z,4.70
2018-09-30T06:10:32.290Z,4.80
2018-09-30T06:13:02.197Z,4.90
2018-09-30T06:15:32.193Z,4.90
2018-09-30T06:18:02.606Z,5.00
2018-09-30T06:20:32.599Z,5.00
2018-09-30T06:23:02.486Z,5.10
2018-09-30T06:25:32.394Z,5.30
2018-09-30T06:28:02.345Z,5.40
2018-09-30T06:30:32.287Z,5.50
2018-09-30T06:33:02.614Z,5.50
2018-09-30T06:35:32.491Z,5.70
2018-09-30T06:38:02.421Z,5.80
2018-09-30T06:40:32.435Z,5.80
2018-09-30T06:43:02.317Z,5.90
2018-09-30T06:45:32.372Z,6.10
2018-09-30T06:48:02.785Z,6.20
2018-09-30T06:50:33.110Z,6.40
2018-09-30T06:53:03.270Z,6.50
2018-09-30T06:55:33.247Z,6.60
2018-09-30T06:58:03.272Z,6.70
2018-09-30T07:00:33.355Z,6.70
2018-09-30T07:03:03.270Z,6.80
2018-09-30T07:05:33.201Z,6.90
2018-09-30T07:08:03.082Z,7.10
2018-09-30T07:10:33.310Z,7.20
2018-09-30T07:13:03.259Z,7.30
2018-09-30T07:15:33.293Z,7.50
2018-09-30T07:18:03.193Z,7.60
2018-09-30T07:20:33.219Z,7.70
2018-09-30T07:23:03.133Z,7.80
2018-09-30T07:25:33.078Z,8.00
2018-09-30T07:28:03.046Z,8.10
2018-09-30T07:30:32.938Z,8.20
2018-09-30T07:33:02.911Z,8.40
2018-09-30T07:35:32.929Z,8.50
2018-09-30T07:38:02.842Z,8.60
2018-09-30T07:40:32.905Z,8.70
2018-09-30T07:43:03.181Z,8.90
2018-09-30T07:45:33.142Z,9.00
2018-09-30T07:48:03.399Z,9.10
2018-09-30T07:50:34.050Z,9.30
2018-09-30T07:53:03.976Z,9.40
2018-09-30T07:55:33.901Z,9.50
2018-09-30T07:58:03.841Z,9.70
2018-09-30T08:00:33.828Z,9.80
2018-09-30T08:03:03.786Z,9.90
2018-09-30T08:05:33.849Z,10.10
2018-09-30T08:08:05.290Z,10.30
2018-09-30T08:10:35.333Z,10.40
2018-09-30T08:13:05.277Z,10.60
2018-09-30T08:15:35.277Z,10.70
2018-09-30T08:18:05.453Z,10.80
2018-09-30T08:20:35.379Z,11.00
2018-09-30T08:23:05.377Z,11.20
2018-09-30T08:25:36.402Z,11.40
2018-09-30T08:28:06.704Z,11.50
2018-09-30T08:30:36.705Z,11.70
2018-09-30T08:33:06.643Z,11.80
2018-09-30T08:35:36.526Z,11.90
2018-09-30T08:38:12.074Z,12.10
2018-09-30T08:40:47.618Z,12.20
2018-09-30T08:43:17.590Z,12.40
2018-09-30T08:45:47.561Z,12.50
2018-09-30T08:48:17.557Z,12.70
2018-09-30T08:50:47.469Z,12.80
2018-09-30T08:53:18.290Z,13.00
2018-09-30T08:55:48.500Z,13.10
2018-09-30T08:58:18.758Z,13.30
2018-09-30T09:00:48.690Z,13.40
2018-09-30T09:03:18.948Z,13.60
2018-09-30T09:05:48.985Z,13.70
2018-09-30T09:08:18.930Z,13.80
2018-09-30T09:10:48.916Z,13.90
2018-09-30T09:13:18.859Z,13.90
2018-09-30T09:15:48.814Z,14.00
2018-09-30T09:18:18.728Z,14.10
2018-09-30T09:20:48.767Z,14.20
2018-09-30T09:23:18.753Z,14.40
2018-09-30T09:25:48.708Z,14.60
2018-09-30T09:28:18.711Z,14.70
2018-09-30T09:30:49.003Z,14.80
2018-09-30T09:33:18.914Z,14.90
2018-09-30T09:35:48.866Z,15.10
2018-09-30T09:38:19.272Z,15.20
2018-09-30T09:40:49.190Z,15.20
2018-09-30T09:43:19.371Z,15.30
2018-09-30T09:45:49.611Z,15.40
2018-09-30T09:48:19.535Z,15.40
2018-09-30T09:50:49.465Z,15.60
2018-09-30T09:53:19.425Z,15.60
2018-09-30T09:55:49.385Z,15.60
2018-09-30T09:58:19.346Z,15.70
2018-09-30T10:00:49.647Z,15.70
2018-09-30T10:03:19.612Z,15.80
2018-09-30T10:05:50.010Z,15.80
2018-09-30T10:08:20.189Z,15.90
2018-09-30T10:10:50.266Z,15.90
2018-09-30T10:13:20.339Z,16.10
2018-09-30T10:15:50.589Z,16.10
2018-09-30T10:18:20.973Z,16.20
2018-09-30T10:20:50.925Z,16.30
2018-09-30T10:23:20.855Z,16.40
2018-09-30T10:25:50.746Z,16.50
2018-09-30T10:28:20.689Z,16.50
2018-09-30T10:30:50.702Z,16.60
2018-09-30T10:33:20.771Z,16.70
2018-09-30T10:35:50.703Z,16.70
2018-09-30T10:38:20.632Z,16.70
2018-09-30T10:40:50.629Z,16.70
2018-09-30T10:43:20.601Z,16.70
2018-09-30T10:45:50.565Z,16.80
2018-09-30T10:48:20.543Z,16.80
2018-09-30T10:50:50.546Z,16.80
2018-09-30T10:53:20.931Z,17.00
2018-09-30T10:55:50.872Z,17.10
2018-09-30T10:58:20.765Z,17.10
2018-09-30T11:00:50.766Z,17.20
2018-09-30T11:03:20.735Z,17.30
2018-09-30T11:05:50.793Z,17.30
2018-09-30T11:08:20.719Z,17.30
2018-09-30T11:10:50.679Z,17.40
2018-09-30T11:13:20.677Z,17.50
2018-09-30T11:15:50.788Z,17.40
2018-09-30T11:18:20.689Z,17.50
2018-09-30T11:20:50.619Z,17.60
2018-09-30T11:23:20.529Z,17.60
2018-09-30T11:25:50.536Z,17.70
2018-09-30T11:28:20.430Z,17.80
2018-09-30T11:30:50.374Z,17.90
2018-09-30T11:33:20.418Z,18.00
2018-09-30T11:35:50.308Z,17.90
2018-09-30T11:38:20.261Z,17.80
2018-09-30T11:40:50.261Z,17.80
2018-09-30T11:43:20.243Z,17.80
2018-09-30T11:45:50.285Z,17.80
2018-09-30T11:48:20.234Z,18.00
2018-09-30T11:50:56.957Z,18.00
2018-09-30T11:53:27.159Z,18.10
2018-09-30T11:55:57.178Z,18.20
2018-09-30T11:58:27.167Z,18.20
2018-09-30T12:00:57.193Z,18.20
2018-09-30T12:03:27.163Z,18.30
2018-09-30T12:05:57.129Z,18.40
2018-09-30T12:08:27.049Z,18.40
2018-09-30T12:10:57.156Z,18.50
2018-09-30T12:13:27.393Z,18.50
2018-09-30T12:15:57.506Z,18.40
2018-09-30T12:18:27.477Z,18.50
2018-09-30T12:20:58.025Z,18.50
2018-09-30T12:23:28.162Z,18.50
2018-09-30T12:25:58.173Z,18.50
2018-09-30T12:28:28.160Z,18.40
2018-09-30T12:30:58.233Z,18.50
2018-09-30T12:33:28.207Z,18.30
2018-09-30T12:35:58.700Z,18.20
2018-09-30T12:38:35.485Z,18.30
2018-09-30T12:41:05.570Z,18.50
2018-09-30T12:43:35.605Z,18.50
2018-09-30T12:46:05.587Z,18.60
2018-09-30T12:48:35.621Z,18.60
2018-09-30T12:51:05.762Z,18.60
2018-09-30T12:53:35.877Z,18.60
2018-09-30T12:56:05.825Z,18.70
2018-09-30T12:58:35.774Z,18.50
2018-09-30T13:01:05.781Z,18.40
2018-09-30T13:03:35.785Z,18.30
2018-09-30T13:06:05.938Z,18.40
2018-09-30T13:08:35.908Z,18.50
2018-09-30T13:11:05.863Z,18.60
2018-09-30T13:13:35.818Z,18.60
2018-09-30T13:16:05.830Z,18.50
2018-09-30T13:18:35.820Z,18.50
2018-09-30T13:21:05.882Z,18.50
2018-09-30T13:23:35.926Z,18.60
2018-09-30T13:26:05.937Z,18.60
2018-09-30T13:28:35.906Z,18.60
2018-09-30T13:31:05.852Z,18.70
2018-09-30T13:33:35.791Z,18.70
2018-09-30T13:36:05.949Z,18.60
2018-09-30T13:38:36.020Z,18.60
2018-09-30T13:41:06.088Z,18.60
2018-09-30T13:43:35.915Z,18.50
2018-09-30T13:46:06.009Z,18.40
2018-09-30T13:48:35.849Z,18.50
2018-09-30T13:51:06.115Z,18.50
2018-09-30T13:53:35.997Z,18.50
2018-09-30T13:56:05.925Z,18.40
2018-09-30T13:58:35.851Z,18.40
2018-09-30T14:01:05.814Z,18.30
2018-09-30T14:03:35.764Z,18.30
2018-09-30T14:06:05.726Z,18.30
2018-09-30T14:08:35.715Z,18.20
2018-09-30T14:11:05.725Z,18.00
2018-09-30T14:13:35.881Z,17.90
2018-09-30T14:16:05.793Z,18.00
2018-09-30T14:18:35.739Z,18.00
2018-09-30T14:21:05.903Z,18.00
2018-09-30T14:23:36.327Z,18.00
2018-09-30T14:26:06.622Z,17.90
2018-09-30T14:28:36.571Z,17.90
2018-09-30T14:31:06.806Z,17.80
2018-09-30T14:33:36.823Z,17.70
2018-09-30T14:36:06.740Z,17.70
2018-09-30T14:38:36.733Z,17.60
2018-09-30T14:41:06.786Z,17.50
2018-09-30T14:43:36.894Z,17.50
2018-09-30T14:46:07.065Z,17.50
2018-09-30T14:48:37.606Z,17.50
2018-09-30T14:51:07.802Z,17.40
2018-09-30T14:53:37.859Z,17.30
2018-09-30T14:56:08.024Z,17.30
2018-09-30T14:58:37.975Z,17.20
2018-09-30T15:01:08.039Z,17.10
2018-09-30T15:03:38.275Z,17.10
2018-09-30T15:06:09.251Z,17.00
2018-09-30T15:08:39.317Z,16.90
2018-09-30T15:11:09.271Z,16.90
2018-09-30T15:13:39.239Z,16.90
2018-09-30T15:16:09.196Z,16.70
2018-09-30T15:18:39.185Z,16.70
2018-09-30T15:21:09.124Z,16.60
2018-09-30T15:23:39.464Z,16.60
2018-09-30T15:26:09.431Z,16.50
2018-09-30T15:28:39.399Z,16.50
2018-09-30T15:31:09.319Z,16.40
2018-09-30T15:33:39.304Z,16.30
2018-09-30T15:36:09.329Z,16.30
2018-09-30T15:38:39.335Z,16.20
2018-09-30T15:41:09.633Z,16.20
2018-09-30T15:43:39.598Z,16.10
2018-09-30T15:46:09.830Z,16.00
2018-09-30T15:48:39.751Z,16.00
2018-09-30T15:51:09.906Z,15.90
2018-09-30T15:53:39.888Z,15.90
2018-09-30T15:56:10.014Z,15.80
2018-09-30T15:58:39.990Z,15.70
2018-09-30T16:01:09.917Z,15.70
2018-09-30T16:03:39.962Z,15.60
2018-09-30T16:06:09.946Z,15.50
2018-09-30T16:08:39.960Z,15.40
2018-09-30T16:11:09.916Z,15.20
2018-09-30T16:13:39.848Z,15.10
2018-09-30T16:16:09.857Z,15.00
2018-09-30T16:18:39.781Z,14.90
2018-09-30T16:21:09.901Z,14.80
2018-09-30T16:23:39.798Z,14.70
2018-09-30T16:26:09.838Z,14.60
2018-09-30T16:28:39.977Z,14.50
2018-09-30T16:31:10.055Z,14.40
2018-09-30T16:33:39.954Z,14.30
2018-09-30T16:36:10.007Z,14.20
2018-09-30T16:38:39.983Z,14.10
2018-09-30T16:41:10.163Z,14.00
2018-09-30T16:43:40.176Z,13.90
2018-09-30T16:46:10.262Z,13.80
2018-09-30T16:48:40.320Z,13.70
2018-09-30T16:51:10.258Z,13.70
2018-09-30T16:53:40.294Z,13.60
2018-09-30T16:56:10.271Z,13.50
2018-09-30T16:58:40.219Z,13.40
2018-09-30T17:01:10.231Z,13.30
2018-09-30T17:03:40.223Z,13.30
2018-09-30T17:06:10.158Z,13.20
2018-09-30T17:08:40.178Z,13.00
2018-09-30T17:11:10.166Z,13.00
2018-09-30T17:13:40.154Z,12.90
2018-09-30T17:16:10.266Z,12.80
2018-09-30T17:18:40.083Z,12.60
2018-09-30T17:21:10.202Z,12.50
2018-09-30T17:23:40.245Z,12.40
2018-09-30T17:26:10.523Z,12.30
2018-09-30T17:28:40.502Z,12.10
2018-09-30T17:31:10.483Z,11.90
2018-09-30T17:33:40.515Z,11.70
2018-09-30T17:36:10.519Z,11.60
2018-09-30T17:38:40.554Z,11.50
2018-09-30T17:41:10.716Z,11.30
2018-09-30T17:43:40.712Z,11.20
2018-09-30T17:46:11.194Z,11.20
2018-09-30T17:48:41.234Z,11.10
2018-09-30T17:51:11.527Z,11.10
2018-09-30T17:53:41.430Z,11.10
2018-09-30T17:56:14.818Z,11.00
2018-09-30T17:58:44.906Z,10.90
2018-09-30T18:01:14.902Z,10.90
2018-09-30T18:03:44.884Z,10.80
2018-09-30T18:06:15.317Z,10.70
2018-09-30T18:08:45.458Z,10.70
2018-09-30T18:11:15.553Z,10.70
2018-09-30T18:13:45.483Z,10.60
2018-09-30T18:16:15.549Z,10.60
2018-09-30T18:18:45.506Z,10.50
2018-09-30T18:21:15.528Z,10.50
2018-09-30T18:23:45.440Z,10.40
2018-09-30T18:26:15.403Z,10.40
2018-09-30T18:28:45.350Z,10.30
2018-09-30T18:31:15.321Z,10.20
2018-09-30T18:33:45.302Z,10.00
2018-09-30T18:36:15.855Z,10.00
2018-09-30T18:38:45.787Z,9.90
2018-09-30T18:41:15.806Z,9.80
2018-09-30T18:43:45.792Z,9.70
2018-09-30T18:46:15.817Z,9.50
2018-09-30T18:48:45.747Z,9.40
2018-09-30T18:51:15.790Z,9.40
2018-09-30T18:53:45.723Z,9.20
2018-09-30T18:56:15.705Z,9.20
2018-09-30T18:58:45.671Z,9.20
2018-09-30T19:01:15.611Z,9.20
2018-09-30T19:03:45.719Z,9.20
2018-09-30T19:06:15.754Z,9.10
2018-09-30T19:08:45.678Z,9.10
2018-09-30T19:11:15.781Z,9.10
2018-09-30T19:13:45.784Z,9.10
2018-09-30T19:16:15.810Z,9.00
2018-09-30T19:18:45.765Z,9.00
2018-09-30T19:21:15.695Z,9.00
2018-09-30T19:23:45.782Z,9.00
2018-09-30T19:26:15.877Z,8.90
2018-09-30T19:28:45.795Z,8.90
2018-09-30T19:31:15.744Z,8.80
2018-09-30T19:33:45.795Z,8.70
2018-09-30T19:36:15.849Z,8.50
2018-09-30T19:38:45.801Z,8.50
2018-09-30T19:41:15.863Z,8.40
2018-09-30T19:43:45.888Z,8.30
2018-09-30T19:46:15.995Z,8.10
2018-09-30T19:48:45.989Z,8.00
2018-09-30T19:51:16.087Z,7.90
2018-09-30T19:53:46.024Z,7.90
2018-09-30T19:56:16.008Z,7.90
2018-09-30T19:58:45.926Z,7.90
2018-09-30T20:01:15.926Z,7.80
2018-09-30T20:03:45.896Z,7.80
2018-09-30T20:06:15.952Z,7.80
2018-09-30T20:08:45.985Z,7.80
2018-09-30T20:11:15.958Z,7.70
2018-09-30T20:13:45.936Z,7.70
2018-09-30T20:16:16.218Z,7.70
2018-09-30T20:18:46.345Z,7.70
2018-09-30T20:21:16.412Z,7.70
2018-09-30T20:23:46.439Z,7.70
2018-09-30T20:26:16.437Z,7.60
2018-09-30T20:28:46.592Z,7.50
2018-09-30T20:31:16.537Z,7.40
2018-09-30T20:33:46.535Z,7.30
2018-09-30T20:36:16.540Z,7.30
2018-09-30T20:38:46.528Z,7.30
2018-09-30T20:41:16.538Z,7.30
2018-09-30T20:43:46.577Z,7.30
2018-09-30T20:46:16.558Z,7.30
2018-09-30T20:48:46.581Z,7.30
2018-09-30T20:51:16.619Z,7.20
2018-09-30T20:53:46.559Z,7.20
2018-09-30T20:56:16.577Z,7.20
2018-09-30T20:58:46.630Z,7.20
2018-09-30T21:01:16.713Z,7.20
2018-09-30T21:03:46.854Z,7.20
2018-09-30T21:06:25.690Z,7.00
2018-09-30T21:08:55.903Z,6.90
2018-09-30T21:11:26.231Z,6.90
2018-09-30T21:13:56.602Z,6.90
2018-09-30T21:16:26.710Z,6.80
2018-09-30T21:18:56.769Z,6.60
2018-09-30T21:21:26.822Z,6.70
2018-09-30T21:23:56.805Z,6.70
2018-09-30T21:26:26.818Z,6.70
2018-09-30T21:28:56.754Z,6.70
2018-09-30T21:31:26.867Z,6.70
2018-09-30T21:33:56.839Z,6.70
2018-09-30T21:36:26.807Z,6.70
2018-09-30T21:38:56.794Z,6.60
2018-09-30T21:41:26.961Z,6.60
2018-09-30T21:43:57.375Z,6.60
2018-09-30T21:46:27.366Z,6.60
2018-09-30T21:48:57.378Z,6.60
2018-09-30T21:51:27.333Z,6.60
2018-09-30T21:53:57.329Z,6.60
2018-09-30T21:56:27.385Z,6.60
2018-09-30T21:58:57.467Z,6.60
2018-09-30T22:01:27.511Z,6.50
2018-09-30T22:03:57.403Z,6.60
2018-09-30T22:06:27.424Z,6.50
2018-09-30T22:08:57.394Z,6.50
2018-09-30T22:11:27.367Z,6.50
2018-09-30T22:13:57.330Z,6.40
2018-09-30T22:16:27.382Z,6.30
2018-09-30T22:18:57.320Z,6.30
2018-09-30T22:21:27.287Z,6.30
2018-09-30T22:23:57.285Z,6.20
2018-09-30T22:26:27.243Z,6.30
2018-09-30T22:28:57.359Z,6.30
2018-09-30T22:31:27.286Z,6.30
2018-09-30T22:33:57.206Z,6.30
2018-09-30T22:36:27.131Z,6.10
2018-09-30T22:38:57.113Z,6.00
2018-09-30T22:41:27.112Z,5.90
2018-09-30T22:43:57.069Z,5.90
2018-09-30T22:46:27.049Z,5.90
2018-09-30T22:48:57.085Z,6.00
2018-09-30T22:51:27.204Z,6.00
2018-09-30T22:53:57.179Z,5.90
2018-09-30T22:56:27.134Z,5.90
2018-09-30T22:58:57.274Z,5.90
2018-09-30T23:01:27.386Z,5.90
2018-09-30T23:03:57.487Z,5.80
2018-09-30T23:06:27.476Z,5.70
2018-09-30T23:08:57.396Z,5.70
2018-09-30T23:11:27.560Z,5.80
2018-09-30T23:13:57.586Z,5.70
2018-09-30T23:16:27.897Z,5.60
2018-09-30T23:18:57.902Z,5.60
2018-09-30T23:21:27.965Z,5.60
2018-09-30T23:23:57.933Z,5.60
2018-09-30T23:26:28.005Z,5.60
2018-09-30T23:28:57.994Z,5.50
2018-09-30T23:31:27.963Z,5.60
2018-09-30T23:33:57.942Z,5.60
2018-09-30T23:36:28.132Z,5.70
2018-09-30T23:38:58.547Z,5.70
2018-09-30T23:41:28.633Z,5.80
2018-09-30T23:43:58.613Z,5.80
2018-09-30T23:46:28.607Z,5.90
2018-09-30T23:48:58.715Z,6.00
2018-09-30T23:51:28.654Z,6.10
2018-09-30T23:53:58.590Z,6.20
2018-09-30T23:56:28.579Z,6.20
2018-09-30T23:58:58.501Z,6.30
